Time;durP1;ratioP1;P1;durP2;ratioP2;P2;SDS_P1;SDS_P2;PMS_P1;PMS_P2;Temp;Humidity;BMP_temperature;BMP_pressure;BME280_temperature;BME280_humidity;BME280_pressure;Samples;Min_cycle;Max_cycle;Signal;HPM_P1;HPM_P2
2022/12/10 00:00:39;;;;;;;57.58;24.13;;;-1.30;99.90;;;;;;6208098;23;20017;-83
2022/12/10 00:03:05;;;;;;;56.08;24.85;;;-1.40;99.90;;;;;;6208893;23;20020;-84
2022/12/10 00:05:34;;;;;;;48.40;21.83;;;-1.30;99.90;;;;;;6209351;23;20036;-84
2022/12/10 00:07:59;;;;;;;50.20;22.83;;;-1.30;99.90;;;;;;6210997;23;20008;-84
2022/12/10 00:10:26;;;;;;;53.90;24.05;;;-1.20;99.90;;;;;;6210789;23;20058;-83
2022/12/10 00:12:51;;;;;;;51.97;22.02;;;-1.00;99.90;;;;;;6211431;23;20021;-84
2022/12/10 00:15:17;;;;;;;56.53;23.00;;;-1.20;99.90;;;;;;6209668;23;20021;-84
2022/12/10 00:17:43;;;;;;;64.20;25.45;;;-1.20;99.90;;;;;;6211976;23;20386;-83
2022/12/10 00:20:09;;;;;;;56.22;23.98;;;-1.20;99.90;;;;;;6211217;23;20094;-83
2022/12/10 00:22:35;;;;;;;58.95;24.45;;;-1.10;99.90;;;;;;6209733;23;20021;-83
2022/12/10 00:25:01;;;;;;;58.08;24.25;;;-1.10;99.90;;;;;;6184923;23;20021;-83
2022/12/10 00:27:27;;;;;;;56.22;22.88;;;-1.10;99.90;;;;;;6208692;23;20008;-84
2022/12/10 00:29:52;;;;;;;54.95;24.45;;;-1.20;99.90;;;;;;6210411;23;20344;-84
2022/12/10 00:32:18;;;;;;;51.78;22.35;;;-1.10;99.90;;;;;;6209195;23;20088;-83
2022/12/10 00:34:43;;;;;;;53.95;23.77;;;-1.10;99.90;;;;;;6184470;23;20016;-83
2022/12/10 00:37:09;;;;;;;53.33;23.35;;;-1.10;99.90;;;;;;6184389;23;20019;-83
2022/12/10 00:39:35;;;;;;;61.25;24.40;;;-1.10;99.90;;;;;;6209105;23;20070;-84
2022/12/10 00:42:01;;;;;;;55.58;23.95;;;-1.10;99.90;;;;;;6210720;23;20024;-83
2022/12/10 00:44:27;;;;;;;63.95;25.38;;;-1.10;99.90;;;;;;6209685;23;20005;-84
2022/12/10 00:46:52;;;;;;;56.72;24.00;;;-1.10;99.90;;;;;;6184121;23;20458;-83
2022/12/10 00:49:18;;;;;;;62.75;25.45;;;-1.20;99.90;;;;;;6183966;23;20132;-84
2022/12/10 00:51:43;;;;;;;57.15;24.77;;;-1.10;99.90;;;;;;6209261;23;20017;-83
2022/12/10 00:54:11;;;;;;;57.70;23.70;;;-1.20;99.90;;;;;;6210441;23;20012;-83
2022/12/10 00:56:37;;;;;;;64.50;27.33;;;-1.20;99.90;;;;;;6210704;23;20012;-83
2022/12/10 00:59:02;;;;;;;49.83;22.80;;;-1.20;99.90;;;;;;6210391;23;20009;-84
2022/12/10 01:01:31;;;;;;;60.00;24.13;;;-1.20;99.90;;;;;;6208286;23;20036;-83
2022/12/10 01:04:00;;;;;;;60.47;25.15;;;-1.10;99.90;;;;;;6208190;23;20024;-83
2022/12/10 01:06:30;;;;;;;56.47;24.30;;;-1.30;99.90;;;;;;6208549;23;20091;-83
2022/12/10 01:08:58;;;;;;;56.47;25.80;;;-1.30;99.90;;;;;;6210543;23;20009;-83
2022/12/10 01:11:27;;;;;;;59.97;24.80;;;-1.40;99.90;;;;;;6208672;23;20012;-83
2022/12/10 01:13:53;;;;;;;62.40;25.77;;;-1.40;99.90;;;;;;6208913;23;20019;-83
2022/12/10 01:16:20;;;;;;;58.45;23.88;;;-1.40;99.90;;;;;;6209908;23;20017;-83
2022/12/10 01:18:46;;;;;;;59.17;24.83;;;-1.50;99.90;;;;;;6210689;23;20013;-83
2022/12/10 01:21:15;;;;;;;59.45;25.23;;;-1.50;99.90;;;;;;6210351;23;20365;-83
2022/12/10 01:23:42;;;;;;;56.90;24.48;;;-1.50;99.90;;;;;;6182905;23;20112;-83
2022/12/10 01:26:12;;;;;;;57.70;23.52;;;-1.50;99.90;;;;;;6209553;23;20091;-83
2022/12/10 01:28:39;;;;;;;61.05;25.27;;;-1.50;99.90;;;;;;6208448;23;20078;-83
2022/12/10 01:31:08;;;;;;;56.75;23.83;;;-1.50;99.90;;;;;;6208847;23;20024;-83
2022/12/10 01:33:35;;;;;;;61.00;23.45;;;-1.60;99.90;;;;;;6183830;23;20033;-83
2022/12/10 01:36:25;;;;;;;62.10;25.63;;;-1.60;99.90;;;;;;6210533;23;20059;-83
2022/12/10 01:38:51;;;;;;;56.67;23.40;;;-1.60;99.90;;;;;;6210219;23;20024;-83
2022/12/10 01:41:26;;;;;;;59.85;25.73;;;-1.60;99.90;;;;;;6208665;23;20017;-82
2022/12/10 01:44:10;;;;;;;55.08;23.88;;;-1.60;99.90;;;;;;6183797;23;20084;-82
2022/12/10 01:46:38;;;;;;;61.90;26.27;;;-1.70;99.90;;;;;;6208579;23;20024;-82
2022/12/10 01:49:06;;;;;;;59.60;23.88;;;-1.70;99.90;;;;;;6208580;23;20090;-82
2022/12/10 01:51:35;;;;;;;58.60;24.65;;;-1.70;99.90;;;;;;6210458;23;20016;-83
2022/12/10 01:54:03;;;;;;;59.15;25.23;;;-1.70;99.90;;;;;;6209853;23;20012;-84
2022/12/10 01:56:30;;;;;;;62.45;26.70;;;-1.70;99.90;;;;;;6208358;23;20048;-83
2022/12/10 01:58:56;;;;;;;64.05;26.20;;;-0.80;99.90;;;;;;6208586;23;20070;-83
2022/12/10 02:01:28;;;;;;;64.55;25.80;;;-1.70;99.90;;;;;;6209645;23;20059;-83
2022/12/10 02:04:39;;;;;;;66.90;27.45;;;-1.70;99.90;;;;;;6207848;23;20066;-83
2022/12/10 02:07:24;;;;;;;64.32;28.20;;;-1.70;99.90;;;;;;6209157;23;20018;-83
2022/12/10 02:10:35;;;;;;;64.15;25.80;;;-0.90;99.90;;;;;;6208760;23;20086;-83
2022/12/10 02:13:00;;;;;;;64.05;25.60;;;-1.80;99.90;;;;;;6092823;23;20161;-83
2022/12/10 02:15:31;;;;;;;66.65;27.77;;;-1.80;99.90;;;;;;6093066;23;20029;-83
2022/12/10 02:18:14;;;;;;;64.03;26.60;;;-1.60;99.90;;;;;;6092433;23;20097;-83
2022/12/10 02:20:48;;;;;;;59.20;24.48;;;-1.80;99.90;;;;;;6117881;23;20022;-83
2022/12/10 02:23:39;;;;;;;65.85;26.73;;;-1.90;99.90;;;;;;6068912;23;20465;-83
2022/12/10 02:26:14;;;;;;;65.32;26.10;;;-1.90;99.90;;;;;;6062021;23;20122;-82
2022/12/10 02:28:46;;;;;;;75.50;27.45;;;-1.90;99.90;;;;;;6093159;23;20205;-82
2022/12/10 02:31:17;;;;;;;62.58;26.67;;;-1.90;99.90;;;;;;6092535;23;20017;-82
2022/12/10 02:33:48;;;;;;;65.03;26.77;;;-1.90;99.90;;;;;;6068042;23;20020;-82
2022/12/10 02:36:14;;;;;;;69.43;25.10;;;-1.90;99.90;;;;;;6092122;23;20691;-82
2022/12/10 02:38:41;;;;;;;63.30;27.02;;;-1.90;99.90;;;;;;6092279;23;20092;-83
2022/12/10 02:41:25;;;;;;;63.28;26.75;;;-1.90;99.90;;;;;;6092720;23;20025;-83
2022/12/10 02:43:53;;;;;;;71.60;28.92;;;-1.90;99.90;;;;;;6093158;23;20417;-82
2022/12/10 02:46:20;;;;;;;62.95;28.30;;;-1.90;99.90;;;;;;6092035;23;20024;-82
2022/12/10 02:48:48;;;;;;;67.88;28.50;;;-1.90;99.90;;;;;;6164934;23;20013;-83
2022/12/10 02:51:14;;;;;;;65.65;26.92;;;-1.90;99.90;;;;;;6207218;23;20092;-82
2022/12/10 02:53:44;;;;;;;61.80;27.85;;;-2.00;99.90;;;;;;6210357;23;20075;-82
2022/12/10 02:56:33;;;;;;;63.22;27.63;;;-1.50;99.90;;;;;;6183153;23;20016;-83
2022/12/10 02:59:07;;;;;;;62.10;26.45;;;-2.00;99.90;;;;;;6207585;23;20040;-82
2022/12/10 03:01:55;;;;;;;;;;;-2.00;99.90;;;;;;6207452;23;20025;-82
2022/12/10 03:04:46;;;;;;;62.20;27.35;;;-2.00;99.90;;;;;;6208970;23;19931;-82
2022/12/10 03:07:38;;;;;;;66.07;26.83;;;-2.00;99.90;;;;;;6208992;23;20478;-82
2022/12/10 03:10:14;;;;;;;67.43;29.10;;;-2.00;99.90;;;;;;6208592;23;20028;-82
2022/12/10 03:12:57;;;;;;;69.75;28.52;;;-2.00;99.90;;;;;;6207052;23;20025;-82
2022/12/10 03:15:25;;;;;;;72.05;28.15;;;-2.00;99.90;;;;;;6209005;23;20040;-82
2022/12/10 03:17:51;;;;;;;66.43;27.23;;;-2.00;99.90;;;;;;6209649;23;20020;-82
2022/12/10 03:20:17;;;;;;;75.85;29.35;;;-2.00;99.90;;;;;;6208919;23;20309;-82
2022/12/10 03:22:46;;;;;;;79.15;29.98;;;-1.60;99.90;;;;;;6182507;23;20016;-82
2022/12/10 03:25:18;;;;;;;78.15;30.48;;;-2.00;99.90;;;;;;6211276;23;20015;-82
2022/12/10 03:27:49;;;;;;;70.65;28.52;;;-2.00;99.90;;;;;;6209903;23;20020;-82
2022/12/10 03:30:15;;;;;;;67.07;28.58;;;-2.30;99.90;;;;;;6209961;23;20103;-82
2022/12/10 03:32:43;;;;;;;69.90;29.85;;;-2.10;99.90;;;;;;6210958;23;20016;-83
2022/12/10 03:35:09;;;;;;;69.13;27.95;;;-2.10;99.90;;;;;;6208555;23;20414;-83
2022/12/10 03:37:36;;;;;;;67.18;28.17;;;-2.10;99.90;;;;;;6211677;23;20040;-83
2022/12/10 03:40:03;;;;;;;72.13;30.40;;;-2.10;99.90;;;;;;6184784;23;20078;-83
2022/12/10 03:42:29;;;;;;;67.45;28.83;;;-2.10;99.90;;;;;;6211434;23;20016;-82
2022/12/10 03:44:54;;;;;;;73.82;28.33;;;-2.10;99.90;;;;;;6209617;23;20013;-82
2022/12/10 03:47:20;;;;;;;73.68;28.80;;;-2.10;99.90;;;;;;6209701;23;20413;-82
2022/12/10 03:49:46;;;;;;;74.80;29.10;;;-2.10;99.90;;;;;;6210326;23;20572;-83
2022/12/10 03:52:12;;;;;;;71.32;31.05;;;-2.10;99.90;;;;;;6209862;23;20021;-82
2022/12/10 03:54:38;;;;;;;73.32;28.88;;;-2.20;99.90;;;;;;6209524;23;20063;-83
2022/12/10 03:57:04;;;;;;;82.50;32.03;;;-2.20;99.90;;;;;;6210000;23;20025;-83
2022/12/10 03:59:29;;;;;;;68.15;29.73;;;-2.20;99.90;;;;;;6209195;23;20020;-83
2022/12/10 04:01:55;;;;;;;80.10;30.15;;;-2.20;99.90;;;;;;6211205;23;20020;-83
2022/12/10 04:04:21;;;;;;;75.28;30.27;;;-2.30;99.90;;;;;;6210374;23;20008;-82
2022/12/10 04:06:46;;;;;;;71.85;28.35;;;-2.30;99.90;;;;;;6209196;23;20036;-82
2022/12/10 04:09:14;;;;;;;77.20;29.60;;;-2.30;99.90;;;;;;6209422;23;20094;-83
2022/12/10 04:11:39;;;;;;;65.07;27.50;;;-2.30;99.90;;;;;;6211052;23;20024;-82
2022/12/10 04:16:49;;;;;;;70.88;28.70;;;-2.30;99.90;;;;;;6209417;23;20100;-82
2022/12/10 04:19:17;;;;;;;69.45;28.42;;;-2.40;99.90;;;;;;6208571;23;20040;-82
2022/12/10 04:27:33;;;;;;;63.47;28.80;;;-2.40;99.90;;;;;;6211775;23;20024;-82
2022/12/10 04:30:00;;;;;;;74.20;29.15;;;-2.40;99.90;;;;;;6209843;23;20024;-82
2022/12/10 04:32:27;;;;;;;75.93;29.67;;;-2.40;99.90;;;;;;6207971;23;20100;-82
2022/12/10 04:34:53;;;;;;;75.15;30.75;;;-2.40;99.90;;;;;;6208964;23;20505;-82
2022/12/10 04:37:19;;;;;;;72.35;26.73;;;-2.40;99.90;;;;;;6184023;23;20025;-82
2022/12/10 04:39:46;;;;;;;70.63;29.55;;;-2.40;99.90;;;;;;6208559;23;20071;-82
2022/12/10 04:42:12;;;;;;;69.97;28.92;;;-2.40;99.90;;;;;;6211106;23;20044;-81
2022/12/10 04:44:37;;;;;;;77.10;31.73;;;-2.40;99.90;;;;;;6209228;23;20024;-82
2022/12/10 04:47:05;;;;;;;77.10;32.38;;;-2.40;99.90;;;;;;6210696;23;20339;-82
2022/12/10 04:49:31;;;;;;;74.75;29.45;;;-2.50;99.90;;;;;;6210959;23;20012;-82
2022/12/10 04:51:56;;;;;;;69.65;29.60;;;-2.50;99.90;;;;;;6209141;23;20526;-82
2022/12/10 04:54:22;;;;;;;74.45;29.10;;;-2.30;99.90;;;;;;6208890;23;20087;-82
2022/12/10 04:56:48;;;;;;;79.03;31.17;;;-2.50;99.90;;;;;;6209499;23;20038;-82
2022/12/10 04:59:14;;;;;;;69.88;30.52;;;-2.50;99.90;;;;;;6183859;23;20084;-82
2022/12/10 05:01:40;;;;;;;72.35;28.45;;;-2.50;99.90;;;;;;6210018;23;20058;-82
2022/12/10 05:04:09;;;;;;;73.07;28.55;;;-2.50;99.90;;;;;;6206998;23;20020;-81
2022/12/10 05:06:35;;;;;;;85.90;31.27;;;-2.60;99.90;;;;;;6208740;23;20017;-82
2022/12/10 05:09:02;;;;;;;80.22;33.08;;;-2.60;99.90;;;;;;6208397;23;20496;-82
2022/12/10 05:11:29;;;;;;;81.40;31.70;;;-2.60;99.90;;;;;;6209278;23;20013;-81
2022/12/10 05:13:56;;;;;;;72.72;29.00;;;-2.60;99.90;;;;;;6210703;23;20012;-82
2022/12/10 05:16:25;;;;;;;62.90;27.23;;;-2.60;99.90;;;;;;6209967;23;20436;-83
2022/12/10 05:18:52;;;;;;;72.57;30.83;;;-2.60;99.90;;;;;;6208593;23;20048;-82
2022/12/10 05:21:19;;;;;;;79.97;30.85;;;-2.50;99.90;;;;;;6210681;23;20012;-83
2022/12/10 05:23:48;;;;;;;75.53;30.45;;;-2.60;99.90;;;;;;6210456;23;20012;-82
2022/12/10 05:26:17;;;;;;;70.30;27.42;;;-2.60;99.90;;;;;;6210607;23;20017;-82
2022/12/10 05:28:55;;;;;;;76.78;30.80;;;-2.60;99.90;;;;;;6210895;23;20040;-82
2022/12/10 05:31:23;;;;;;;68.13;27.80;;;-2.60;99.90;;;;;;6210359;23;20039;-82
2022/12/10 05:33:49;;;;;;;73.25;28.80;;;-2.60;99.90;;;;;;6208529;23;20439;-82
2022/12/10 05:36:18;;;;;;;86.28;32.67;;;-2.60;99.90;;;;;;6210855;23;20028;-82
2022/12/10 05:38:45;;;;;;;74.40;30.70;;;-2.60;99.90;;;;;;6210872;23;20043;-82
2022/12/10 05:41:16;;;;;;;83.70;30.67;;;-2.60;99.90;;;;;;6210661;23;20025;-82
2022/12/10 05:43:42;;;;;;;78.15;30.70;;;-2.60;99.90;;;;;;6208216;23;20506;-83
2022/12/10 05:46:12;;;;;;;84.95;34.65;;;-2.70;99.90;;;;;;6209521;23;20059;-82
2022/12/10 05:48:38;;;;;;;82.05;31.45;;;-2.70;99.90;;;;;;6209551;23;20387;-83
2022/12/10 05:51:14;;;;;;;79.10;30.13;;;-2.90;99.90;;;;;;6210393;23;20058;-82
2022/12/10 05:53:41;;;;;;;72.70;30.67;;;-2.70;99.90;;;;;;6210715;23;20021;-83
2022/12/10 05:56:15;;;;;;;76.25;33.10;;;-2.70;99.90;;;;;;6208376;23;20052;-82
2022/12/10 05:58:42;;;;;;;79.32;32.80;;;-2.70;99.90;;;;;;6182411;23;20048;-82
2022/12/10 06:01:10;;;;;;;79.30;30.58;;;-2.70;99.90;;;;;;6209798;23;20092;-82
2022/12/10 06:03:36;;;;;;;93.43;36.47;;;-2.60;99.90;;;;;;6209592;23;20013;-81
2022/12/10 06:06:02;;;;;;;77.15;30.63;;;-2.60;99.90;;;;;;6207484;23;20332;-82
2022/12/10 06:08:28;;;;;;;88.43;32.55;;;-2.40;99.90;;;;;;6205898;23;20099;-82
2022/12/10 06:10:54;;;;;;;87.90;34.95;;;-2.50;99.90;;;;;;6209156;23;20321;-83
2022/12/10 06:13:20;;;;;;;87.20;32.88;;;-2.60;99.90;;;;;;6207469;23;20134;-82
2022/12/10 06:15:46;;;;;;;80.20;32.55;;;-2.20;99.90;;;;;;6182834;23;20071;-82
2022/12/10 06:18:12;;;;;;;80.60;30.67;;;-2.50;99.90;;;;;;6184248;23;20016;-82
2022/12/10 06:20:40;;;;;;;73.22;30.00;;;-2.50;99.90;;;;;;6209059;23;20343;-82
2022/12/10 06:23:06;;;;;;;80.32;34.30;;;-2.40;99.90;;;;;;6211126;23;20079;-82
2022/12/10 06:25:32;;;;;;;83.25;33.72;;;-2.40;99.90;;;;;;6209108;23;20020;-83
2022/12/10 06:27:58;;;;;;;77.07;31.92;;;-2.40;99.90;;;;;;6183349;23;20095;-82
2022/12/10 06:30:25;;;;;;;85.95;35.13;;;-2.30;99.90;;;;;;6210417;23;20129;-82
2022/12/10 06:32:50;;;;;;;91.60;36.47;;;-2.20;99.90;;;;;;6211089;23;20023;-82
2022/12/10 06:35:16;;;;;;;91.18;33.58;;;-2.10;99.90;;;;;;6207397;23;20726;-82
2022/12/10 06:37:42;;;;;;;73.25;31.08;;;-2.20;99.90;;;;;;6206212;23;20076;-82
2022/12/10 06:40:08;;;;;;;82.88;31.50;;;-2.20;99.90;;;;;;6209210;23;20016;-82
2022/12/10 06:42:34;;;;;;;78.07;34.58;;;-2.10;99.90;;;;;;6206629;23;20754;-82
2022/12/10 06:44:59;;;;;;;86.88;33.17;;;-2.10;99.90;;;;;;6209168;23;20047;-82
2022/12/10 06:47:25;;;;;;;90.72;34.55;;;-2.10;99.90;;;;;;6208979;23;20012;-82
2022/12/10 06:49:51;;;;;;;80.38;32.22;;;-2.00;99.90;;;;;;6207796;23;20340;-82
2022/12/10 06:52:17;;;;;;;85.20;32.85;;;-2.00;99.90;;;;;;6207982;23;20055;-82
2022/12/10 06:54:43;;;;;;;85.30;31.17;;;-2.00;99.90;;;;;;6207315;23;20019;-83
2022/12/10 06:57:08;;;;;;;83.40;33.08;;;-2.00;99.90;;;;;;6206834;23;20026;-82
2022/12/10 06:59:35;;;;;;;93.45;32.17;;;-2.00;99.90;;;;;;6206945;23;20020;-82
2022/12/10 07:02:01;;;;;;;86.28;32.75;;;-1.20;99.90;;;;;;6209220;23;20040;-82
2022/12/10 07:04:27;;;;;;;81.75;32.95;;;-2.00;99.90;;;;;;6208941;23;20005;-82
2022/12/10 07:06:53;;;;;;;86.32;32.22;;;-1.90;99.90;;;;;;6207283;23;20356;-82
2022/12/10 07:09:18;;;;;;;91.28;34.33;;;-1.90;99.90;;;;;;6209381;23;20398;-82
2022/12/10 07:11:44;;;;;;;86.47;31.00;;;-1.90;99.90;;;;;;6207002;23;20012;-82
2022/12/10 07:14:15;;;;;;;90.75;32.63;;;-1.90;99.90;;;;;;6209683;23;20024;-82
2022/12/10 07:16:41;;;;;;;88.18;33.08;;;-1.90;99.90;;;;;;6209507;23;20028;-82
2022/12/10 07:19:11;;;;;;;89.07;33.70;;;-1.90;99.90;;;;;;6207269;23;20080;-82
2022/12/10 07:21:39;;;;;;;89.80;34.03;;;-1.90;99.90;;;;;;6209606;23;20004;-82
2022/12/10 07:24:09;;;;;;;94.50;32.33;;;-1.90;99.90;;;;;;6209265;23;20044;-83
2022/12/10 07:26:37;;;;;;;89.47;32.35;;;-2.00;99.90;;;;;;6208244;23;20115;-82
2022/12/10 07:29:05;;;;;;;84.40;32.53;;;-1.90;99.90;;;;;;6209652;23;20462;-82
2022/12/10 07:31:31;;;;;;;90.45;32.50;;;-1.80;99.90;;;;;;6209619;23;20012;-82
2022/12/10 07:33:57;;;;;;;80.65;30.58;;;-1.90;99.90;;;;;;6208802;23;20012;-82
2022/12/10 07:36:24;;;;;;;95.13;35.05;;;-1.80;99.90;;;;;;6205637;23;20016;-82
2022/12/10 07:38:54;;;;;;;86.45;31.27;;;-1.80;99.90;;;;;;6206661;23;20017;-83
2022/12/10 07:41:21;;;;;;;78.20;30.65;;;-0.80;99.90;;;;;;6208668;23;20415;-84
2022/12/10 07:43:47;;;;;;;96.57;33.38;;;-1.80;99.90;;;;;;6206837;23;20016;-82
2022/12/10 07:46:20;;;;;;;82.82;31.45;;;-1.70;99.90;;;;;;6206960;23;20093;-82
2022/12/10 07:48:47;;;;;;;84.22;32.42;;;-1.80;99.90;;;;;;6208491;23;20044;-81
2022/12/10 07:51:15;;;;;;;94.90;34.22;;;-1.70;99.90;;;;;;6207517;23;20021;-82
2022/12/10 07:53:41;;;;;;;82.55;32.25;;;-1.70;99.90;;;;;;6180372;23;20411;-82
2022/12/10 07:56:07;;;;;;;86.45;31.23;;;-1.80;99.90;;;;;;6206747;23;20069;-82
2022/12/10 07:58:33;;;;;;;87.10;33.85;;;-1.70;99.90;;;;;;6208206;23;20009;-84
2022/12/10 08:00:59;;;;;;;84.70;31.45;;;-1.70;99.90;;;;;;6207240;23;20012;-84
2022/12/10 08:03:25;;;;;;;88.75;33.83;;;-1.70;99.90;;;;;;6208089;23;20094;-82
2022/12/10 08:06:05;;;;;;;85.75;32.13;;;-1.70;99.90;;;;;;6206602;23;20030;-82
2022/12/10 08:08:32;;;;;;;87.82;31.45;;;-1.70;99.90;;;;;;6208937;23;20088;-82
2022/12/10 08:11:02;;;;;;;79.05;31.27;;;-1.20;99.90;;;;;;6210021;23;20347;-81
2022/12/10 08:13:28;;;;;;;81.72;31.88;;;-1.70;99.90;;;;;;6210320;23;20012;-82
2022/12/10 08:15:59;;;;;;;80.93;32.25;;;-1.70;99.90;;;;;;6207761;23;20021;-82
2022/12/10 08:18:25;;;;;;;89.60;33.63;;;-1.60;99.90;;;;;;6209574;23;20170;-81
2022/12/10 08:20:51;;;;;;;89.88;32.45;;;-1.60;99.90;;;;;;6208401;23;20353;-82
2022/12/10 08:23:16;;;;;;;82.55;32.58;;;-1.60;99.90;;;;;;6209068;23;20344;-81
2022/12/10 08:25:42;;;;;;;91.80;33.08;;;-1.60;99.90;;;;;;6208734;23;20016;-82
2022/12/10 08:28:08;;;;;;;90.43;32.80;;;-1.60;99.90;;;;;;6207441;23;20027;-81
2022/12/10 08:30:34;;;;;;;83.57;32.60;;;-1.70;99.90;;;;;;6208320;23;20352;-82
2022/12/10 08:33:00;;;;;;;83.07;32.33;;;-1.60;99.90;;;;;;6207533;23;20017;-82
2022/12/10 08:35:26;;;;;;;84.25;33.22;;;-1.60;99.90;;;;;;6210442;23;20009;-82
2022/12/10 08:37:52;;;;;;;84.10;32.83;;;-1.60;99.90;;;;;;6209270;23;20023;-81
2022/12/10 08:40:17;;;;;;;84.93;32.60;;;-1.60;99.90;;;;;;6211511;23;20019;-82
2022/12/10 08:42:43;;;;;;;87.20;35.35;;;-1.60;99.90;;;;;;6209261;23;20012;-81
2022/12/10 08:45:09;;;;;;;88.80;34.13;;;-1.50;99.90;;;;;;6210595;23;20423;-81
2022/12/10 08:47:35;;;;;;;85.63;34.30;;;-1.50;99.90;;;;;;6210907;23;20075;-81
2022/12/10 08:50:00;;;;;;;91.22;35.15;;;-1.60;99.90;;;;;;6209003;23;20086;-81
2022/12/10 08:52:28;;;;;;;83.72;34.08;;;-1.50;99.90;;;;;;6210287;23;20024;-82
2022/12/10 08:54:54;;;;;;;87.88;34.00;;;-1.50;99.90;;;;;;6209678;23;20044;-85
2022/12/10 08:57:20;;;;;;;89.40;36.13;;;-1.50;99.90;;;;;;6211724;23;20432;-82
2022/12/10 08:59:46;;;;;;;84.28;33.10;;;-1.50;99.90;;;;;;6209721;23;20432;-83
2022/12/10 09:02:11;;;;;;;91.72;33.30;;;-1.40;99.90;;;;;;6209334;23;20016;-82
2022/12/10 09:04:38;;;;;;;93.55;34.72;;;-1.40;99.90;;;;;;6211614;23;20444;-81
2022/12/10 09:07:05;;;;;;;89.07;33.95;;;-1.40;99.90;;;;;;6209658;23;20447;-82
2022/12/10 09:09:31;;;;;;;93.75;32.92;;;-1.40;99.90;;;;;;6183376;23;20065;-82
2022/12/10 09:11:57;;;;;;;84.50;31.85;;;-1.30;99.90;;;;;;6211240;23;20047;-82
2022/12/10 09:14:23;;;;;;;87.60;32.03;;;-1.30;99.90;;;;;;6211463;23;20009;-82
2022/12/10 09:16:49;;;;;;;86.57;33.22;;;-1.30;99.90;;;;;;6210422;23;20023;-82
2022/12/10 09:19:16;;;;;;;80.88;28.90;;;-1.30;99.90;;;;;;6209639;23;20021;-81
2022/12/10 09:21:41;;;;;;;81.95;32.72;;;-1.20;99.90;;;;;;6206753;23;20124;-81
2022/12/10 09:24:09;;;;;;;75.88;32.42;;;-1.20;99.90;;;;;;6211546;23;20036;-82
2022/12/10 09:26:34;;;;;;;78.43;32.90;;;-1.20;99.90;;;;;;6210348;23;20012;-82
2022/12/10 09:29:00;;;;;;;85.50;33.38;;;-1.20;99.90;;;;;;6212011;23;20032;-81
2022/12/10 09:31:26;;;;;;;82.28;34.72;;;-1.20;99.90;;;;;;6184779;23;20386;-81
2022/12/10 09:33:53;;;;;;;87.90;33.67;;;-1.20;99.90;;;;;;6211822;23;20012;-82
2022/12/10 09:36:21;;;;;;;81.68;32.70;;;-1.10;99.90;;;;;;6210744;23;20020;-80
2022/12/10 09:38:47;;;;;;;85.03;33.60;;;-1.10;99.90;;;;;;6209883;23;20078;-81
2022/12/10 09:41:39;;;;;;;89.20;34.60;;;-1.10;99.90;;;;;;6210041;23;20027;-81
2022/12/10 09:44:32;;;;;;;84.65;33.00;;;-1.10;99.90;;;;;;6070467;23;20079;-81
2022/12/10 09:47:00;;;;;;;76.78;32.83;;;-1.00;99.90;;;;;;6119320;23;20021;-80
2022/12/10 09:49:53;;;;;;;81.60;32.67;;;-1.00;99.90;;;;;;6093981;23;20450;-81
2022/12/10 09:52:22;;;;;;;77.68;31.75;;;-1.00;99.90;;;;;;6091716;23;20025;-80
2022/12/10 09:54:56;;;;;;;81.00;30.77;;;-0.80;99.90;;;;;;6091868;23;20017;-80
2022/12/10 09:57:36;;;;;;;74.03;30.23;;;-0.90;99.90;;;;;;6116578;23;20032;-81
2022/12/10 10:00:29;;;;;;;75.28;30.92;;;-0.90;99.90;;;;;;6068281;23;20097;-81
2022/12/10 10:02:59;;;;;;;74.20;29.90;;;-0.90;99.90;;;;;;6116577;23;20018;-81
2022/12/10 10:05:35;;;;;;;85.40;30.98;;;-0.90;99.90;;;;;;6091573;23;20310;-81
2022/12/10 10:08:03;;;;;;;89.00;34.22;;;-0.30;99.90;;;;;;6119375;23;20049;-80
2022/12/10 10:10:32;;;;;;;75.32;31.42;;;-0.80;99.90;;;;;;6117448;23;20402;-81
2022/12/10 10:13:07;;;;;;;79.53;30.92;;;-0.80;99.90;;;;;;6119011;23;20057;-81
2022/12/10 10:15:39;;;;;;;75.80;31.10;;;-0.80;99.90;;;;;;6094663;23;20093;-80
2022/12/10 10:18:28;;;;;;;87.88;34.25;;;-0.80;99.90;;;;;;6119009;23;20097;-81
2022/12/10 10:20:55;;;;;;;79.53;32.25;;;-0.80;99.90;;;;;;6114657;23;20347;-81
2022/12/10 10:23:20;;;;;;;85.25;34.03;;;-0.80;99.90;;;;;;6209714;23;20020;-80
2022/12/10 10:25:46;;;;;;;81.40;32.10;;;-0.80;99.90;;;;;;6209318;23;20020;-81
2022/12/10 10:28:20;;;;;;;77.10;31.98;;;-0.80;99.90;;;;;;6209979;23;20502;-81
2022/12/10 10:30:47;;;;;;;88.80;33.67;;;-0.80;99.90;;;;;;6211245;23;20917;-80
2022/12/10 10:33:15;;;;;;;86.45;32.38;;;-0.80;99.90;;;;;;6211008;23;20087;-81
2022/12/10 10:35:56;;;;;;;88.35;33.58;;;-0.80;99.90;;;;;;6207535;23;20020;-81
2022/12/10 10:38:23;;;;;;;92.15;35.65;;;-0.80;99.90;;;;;;6209971;23;20023;-81
2022/12/10 10:40:52;;;;;;;95.13;33.63;;;-0.80;99.90;;;;;;6210134;23;20436;-81
2022/12/10 10:43:27;;;;;;;85.55;36.10;;;-0.80;99.90;;;;;;6210047;23;20020;-81
2022/12/10 10:45:58;;;;;;;92.63;35.83;;;-0.70;99.90;;;;;;6210784;23;20009;-81
2022/12/10 10:48:26;;;;;;;88.38;35.45;;;-0.70;99.90;;;;;;6210065;23;20020;-81
2022/12/10 10:50:53;;;;;;;89.10;36.22;;;-0.70;99.90;;;;;;6207852;23;20024;-81
2022/12/10 10:53:43;;;;;;;82.35;32.40;;;-0.60;99.90;;;;;;6209666;23;20016;-81
2022/12/10 10:56:18;;;;;;;82.78;34.30;;;-0.60;99.90;;;;;;6209440;23;20440;-81
2022/12/10 10:59:01;;;;;;;77.85;31.95;;;-0.60;99.90;;;;;;6210435;23;20013;-81
2022/12/10 11:01:47;;;;;;;78.35;32.00;;;-0.50;99.90;;;;;;6210257;23;20013;-81
2022/12/10 11:04:15;;;;;;;79.45;32.25;;;-0.50;99.90;;;;;;6209070;23;20431;-81
2022/12/10 11:06:42;;;;;;;78.82;33.15;;;-0.50;99.90;;;;;;6210300;23;20045;-81
2022/12/10 11:09:07;;;;;;;79.07;31.92;;;-0.50;99.90;;;;;;6210426;23;20031;-81
2022/12/10 11:11:40;;;;;;;83.57;32.70;;;-0.40;99.90;;;;;;6209935;23;20009;-81
2022/12/10 11:14:23;;;;;;;78.28;32.08;;;-0.40;99.90;;;;;;6209823;23;20055;-81
2022/12/10 11:16:49;;;;;;;71.10;30.63;;;-0.40;99.90;;;;;;6209852;23;20698;-81
2022/12/10 11:19:23;;;;;;;83.53;32.00;;;-0.30;99.90;;;;;;6209458;23;20020;-81
2022/12/10 11:21:49;;;;;;;;;;;-0.40;99.90;;;;;;6210898;23;20036;-81
2022/12/10 11:24:18;;;;;;;80.28;30.90;;;-0.30;99.90;;;;;;6210300;23;19919;-82
2022/12/10 11:26:55;;;;;;;75.82;30.73;;;-0.30;99.90;;;;;;6210863;23;20012;-81
2022/12/10 11:29:36;;;;;;;85.13;33.15;;;-0.30;99.90;;;;;;6210776;23;20024;-84
2022/12/10 11:32:26;;;;;;;77.00;31.58;;;-0.30;99.90;;;;;;6209234;23;20074;-83
2022/12/10 11:35:02;;;;;;;80.70;34.30;;;-0.30;99.90;;;;;;6208631;23;20021;-83
2022/12/10 11:37:36;;;;;;;77.20;31.98;;;-0.30;99.90;;;;;;6206702;23;20020;-83
2022/12/10 11:40:11;;;;;;;;;;;-0.30;99.90;;;;;;6209212;23;20021;-84
2022/12/10 11:43:07;;;;;;;68.53;29.67;;;-0.30;99.90;;;;;;6210544;23;19923;-84
2022/12/10 11:45:54;;;;;;;70.43;29.92;;;-0.20;99.90;;;;;;6212730;23;20015;-84
2022/12/10 11:49:01;;;;;;;87.75;34.28;;;-0.20;99.90;;;;;;6210268;23;20039;-83
2022/12/10 11:51:44;;;;;;;83.55;29.42;;;1.20;99.90;;;;;;6120052;23;20119;-82
2022/12/10 11:54:47;;;;;;;76.45;30.08;;;-0.80;99.90;;;;;;6120272;23;20017;-83
2022/12/10 11:57:43;;;;;;;79.97;31.20;;;-0.10;99.90;;;;;;6120166;23;20018;-83
2022/12/10 12:00:17;;;;;;;73.10;29.38;;;-0.20;99.90;;;;;;6115176;23;20014;-83
2022/12/10 12:02:51;;;;;;;;;;;-0.20;99.90;;;;;;6095872;23;20010;-83
2022/12/10 12:05:26;;;;;;;70.07;29.10;;;0.30;99.90;;;;;;6095547;23;19912;-84
2022/12/10 12:08:12;;;;;;;73.68;29.52;;;-0.10;99.90;;;;;;6095576;23;20022;-83
2022/12/10 12:11:01;;;;;;;71.82;28.35;;;-0.10;99.90;;;;;;6093138;23;20068;-82
2022/12/10 12:13:41;;;;;;;68.25;27.10;;;0.00;99.90;;;;;;6119438;23;20025;-83
2022/12/10 12:16:15;;;;;;;70.63;26.27;;;0.00;99.90;;;;;;6119293;23;20129;-86
2022/12/10 12:18:59;;;;;;;68.30;27.65;;;0.00;99.90;;;;;;6119842;23;20093;-84
2022/12/10 12:21:25;;;;;;;68.97;26.63;;;-0.10;99.90;;;;;;6118802;23;20041;-83
2022/12/10 12:23:59;;;;;;;68.18;27.70;;;-0.10;99.90;;;;;;6119189;23;20076;-83
2022/12/10 12:26:30;;;;;;;68.28;27.88;;;-0.10;99.90;;;;;;6205409;23;20047;-83
2022/12/10 12:29:03;;;;;;;74.47;27.55;;;-0.10;99.90;;;;;;6211190;23;20013;-82
2022/12/10 12:31:37;;;;;;;84.60;30.87;;;-0.10;99.90;;;;;;6211973;23;20017;-83
2022/12/10 12:34:13;;;;;;;74.93;29.07;;;-0.10;99.90;;;;;;6212479;23;20012;-84
2022/12/10 12:36:40;;;;;;;79.60;30.10;;;0.00;99.90;;;;;;6212203;23;20016;-84
2022/12/10 12:39:21;;;;;;;82.95;31.50;;;0.00;99.90;;;;;;6210092;23;20027;-86
2022/12/10 12:41:47;;;;;;;77.13;29.27;;;0.10;99.90;;;;;;6211338;23;20508;-83
2022/12/10 12:44:25;;;;;;;71.57;29.02;;;0.10;99.90;;;;;;6210126;23;20016;-83
2022/12/10 12:46:52;;;;;;;66.82;28.92;;;0.10;99.90;;;;;;6213803;23;20017;-83
2022/12/10 12:49:37;;;;;;;74.30;29.33;;;0.10;99.90;;;;;;6213498;23;20031;-83
2022/12/10 12:52:06;;;;;;;66.97;27.98;;;0.10;99.90;;;;;;6213704;23;20092;-83